Time;durP1;ratioP1;P1;durP2;ratioP2;P2;SDS_P1;SDS_P2;PMS_P1;PMS_P2;Temp;Humidity;BMP_temperature;BMP_pressure;BME280_temperature;BME280_humidity;BME280_pressure;Samples;Min_cycle;Max_cycle;Signal;HPM_P1;HPM_P2
2024/03/22 00:00:59;;;;;;;4.18;2.60;;;21.80;60.20;;;;;;4971560;28;88428;-61
2024/03/22 00:03:26;;;;;;;4.78;3.42;;;21.80;60.30;;;;;;4972158;28;87123;-62
2024/03/22 00:05:52;;;;;;;4.35;2.95;;;21.80;60.20;;;;;;4971818;28;88814;-62
2024/03/22 00:08:17;;;;;;;5.07;3.20;;;21.70;60.10;;;;;;4973448;28;87833;-62
2024/03/22 00:10:43;;;;;;;4.93;3.20;;;21.70;60.20;;;;;;4974701;28;87832;-62
2024/03/22 00:13:09;;;;;;;4.38;3.08;;;21.70;60.20;;;;;;4971373;28;87755;-62
2024/03/22 00:15:36;;;;;;;3.72;2.70;;;21.70;60.20;;;;;;4972809;28;87790;-62
2024/03/22 00:18:03;;;;;;;5.32;3.30;;;21.70;59.90;;;;;;4971685;28;87896;-62
2024/03/22 00:20:30;;;;;;;5.05;2.70;;;21.70;60.10;;;;;;4963294;28;87446;-62
2024/03/22 00:22:56;;;;;;;4.28;3.22;;;21.70;60.10;;;;;;4955150;28;87324;-63
2024/03/22 00:25:23;;;;;;;6.13;3.35;;;21.70;59.80;;;;;;4951856;28;90115;-63
2024/03/22 00:27:49;;;;;;;4.47;2.85;;;21.60;59.80;;;;;;4954559;28;88178;-61
2024/03/22 00:30:16;;;;;;;5.00;3.38;;;21.70;59.90;;;;;;4950606;28;87139;-61
2024/03/22 00:32:45;;;;;;;4.35;2.90;;;21.70;59.70;;;;;;4948608;28;87814;-61
2024/03/22 00:38:33;;;;;;;5.28;3.25;;;21.60;59.80;;;;;;4948956;28;87485;-63
2024/03/22 00:40:59;;;;;;;3.53;2.65;;;21.60;59.90;;;;;;4953403;28;87695;-62
2024/03/22 00:43:25;;;;;;;4.93;3.13;;;21.60;59.90;;;;;;4935168;28;86703;-61
2024/03/22 00:45:51;;;;;;;3.92;2.65;;;21.60;60.10;;;;;;4934786;28;87930;-62
2024/03/22 00:48:18;;;;;;;5.20;3.20;;;21.60;59.90;;;;;;4933346;28;88858;-62
2024/03/22 00:50:43;;;;;;;5.20;3.15;;;21.60;59.80;;;;;;4934089;28;88265;-62
2024/03/22 00:53:09;;;;;;;3.55;2.40;;;21.60;59.90;;;;;;4934166;28;87260;-62
2024/03/22 00:55:36;;;;;;;3.47;2.67;;;21.60;59.90;;;;;;4935167;28;88163;-62
2024/03/22 00:58:01;;;;;;;5.20;3.00;;;21.60;59.80;;;;;;4934631;28;88239;-63
2024/03/22 01:00:28;;;;;;;3.83;2.92;;;21.60;59.70;;;;;;4934384;28;87483;-62
2024/03/22 01:02:54;;;;;;;4.07;2.83;;;21.60;59.70;;;;;;4932356;28;87756;-61
2024/03/22 01:05:19;;;;;;;4.20;2.75;;;21.60;59.80;;;;;;4933133;28;87688;-61
2024/03/22 01:07:45;;;;;;;6.95;3.15;;;21.60;59.90;;;;;;4934008;28;87942;-61
2024/03/22 01:10:12;;;;;;;3.90;2.72;;;21.60;59.80;;;;;;4934495;28;87609;-62
2024/03/22 01:12:39;;;;;;;4.18;2.28;;;21.60;59.70;;;;;;4929823;28;87355;-62
2024/03/22 01:15:07;;;;;;;4.95;2.47;;;21.60;59.60;;;;;;4930893;28;90099;-62
2024/03/22 01:17:34;;;;;;;4.40;3.10;;;21.50;59.60;;;;;;4940399;28;89374;-62
2024/03/22 01:20:00;;;;;;;3.70;2.70;;;21.50;59.50;;;;;;4953186;28;86986;-61
2024/03/22 01:22:26;;;;;;;4.20;3.08;;;21.50;59.60;;;;;;4952839;28;92535;-62
2024/03/22 01:24:53;;;;;;;4.07;2.60;;;21.50;59.70;;;;;;4950129;28;88581;-64
2024/03/22 01:27:18;;;;;;;5.72;2.80;;;21.50;59.60;;;;;;4951410;28;87489;-63
2024/03/22 01:29:44;;;;;;;4.10;3.10;;;21.50;59.60;;;;;;4952362;28;87259;-63
2024/03/22 01:32:10;;;;;;;5.18;3.40;;;21.50;59.60;;;;;;4953449;28;86661;-61
2024/03/22 01:34:35;;;;;;;5.95;3.55;;;21.50;59.50;;;;;;4953676;28;87205;-63
2024/03/22 01:37:02;;;;;;;5.60;3.10;;;21.50;59.60;;;;;;4963784;28;87256;-60
2024/03/22 01:39:28;;;;;;;4.38;3.03;;;21.50;59.60;;;;;;4947052;28;88548;-62
2024/03/22 01:41:54;;;;;;;4.72;2.50;;;21.50;59.60;;;;;;4971990;28;86964;-61
2024/03/22 01:44:31;;;;;;;4.82;3.13;;;21.50;59.60;;;;;;4968066;28;88290;-62
2024/03/22 01:46:57;;;;;;;4.10;2.53;;;21.50;59.60;;;;;;4972330;28;88277;-62
2024/03/22 01:49:25;;;;;;;3.22;2.47;;;21.50;59.40;;;;;;4971212;28;87603;-62
2024/03/22 01:51:52;;;;;;;3.95;2.80;;;21.50;59.50;;;;;;4970693;28;87149;-61
2024/03/22 01:54:19;;;;;;;3.60;2.85;;;21.50;59.70;;;;;;4972157;28;88067;-61
2024/03/22 01:56:45;;;;;;;4.70;2.80;;;21.50;59.50;;;;;;4973179;28;86902;-62
2024/03/22 01:59:10;;;;;;;4.03;2.70;;;21.50;59.50;;;;;;4971884;28;87551;-61
2024/03/22 02:01:36;;;;;;;3.80;2.53;;;21.40;59.50;;;;;;4973930;28;87497;-61
2024/03/22 02:04:02;;;;;;;3.45;2.30;;;21.40;59.40;;;;;;4970056;28;90386;-61
2024/03/22 02:06:28;;;;;;;3.53;2.67;;;21.40;59.60;;;;;;4937304;28;91625;-62
2024/03/22 02:08:56;;;;;;;4.25;2.72;;;21.40;59.40;;;;;;4954439;28;87081;-61
2024/03/22 02:11:22;;;;;;;3.60;2.50;;;21.40;59.60;;;;;;4951920;28;87563;-61
2024/03/22 02:13:47;;;;;;;3.42;2.47;;;21.40;59.60;;;;;;4953022;28;88135;-63
2024/03/22 02:16:13;;;;;;;3.75;2.55;;;21.40;59.50;;;;;;4952357;28;87332;-62
2024/03/22 02:18:40;;;;;;;4.65;3.22;;;21.40;59.50;;;;;;4951498;28;87078;-61
2024/03/22 02:21:07;;;;;;;4.00;2.58;;;21.40;59.40;;;;;;4951887;28;87593;-61
2024/03/22 02:23:40;;;;;;;3.67;2.55;;;21.40;59.60;;;;;;4948466;28;88106;-62
2024/03/22 02:26:08;;;;;;;3.97;3.03;;;21.40;59.60;;;;;;4953293;28;87836;-62
2024/03/22 02:28:35;;;;;;;6.00;2.95;;;21.40;59.70;;;;;;4955795;28;89830;-61
2024/03/22 02:31:05;;;;;;;2.83;2.28;;;21.40;59.60;;;;;;4957331;28;86971;-61
2024/03/22 02:33:31;;;;;;;4.10;2.67;;;21.40;59.40;;;;;;4949962;28;86953;-61
2024/03/22 02:35:57;;;;;;;2.65;2.25;;;21.40;59.40;;;;;;4953779;28;90679;-62
2024/03/22 02:38:23;;;;;;;3.78;2.63;;;21.40;59.50;;;;;;4957093;28;86877;-62
2024/03/22 02:40:52;;;;;;;4.13;2.90;;;21.30;59.40;;;;;;4956037;28;87685;-61
2024/03/22 02:43:18;;;;;;;3.80;2.85;;;21.30;59.50;;;;;;4956420;28;87969;-61
2024/03/22 02:45:45;;;;;;;5.20;2.78;;;21.30;59.60;;;;;;4955146;28;88273;-63
2024/03/22 02:48:11;;;;;;;3.30;2.25;;;21.30;59.40;;;;;;4957077;28;87549;-62
2024/03/22 02:50:38;;;;;;;3.42;2.42;;;21.40;59.50;;;;;;4954527;28;87501;-63
2024/03/22 02:53:04;;;;;;;3.65;2.35;;;21.30;59.50;;;;;;4970767;28;90209;-61
2024/03/22 02:55:36;;;;;;;5.05;3.33;;;21.30;59.50;;;;;;4956881;28;88819;-61
2024/03/22 02:58:02;;;;;;;4.18;2.75;;;21.30;59.50;;;;;;4956251;28;86978;-62
2024/03/22 03:00:28;;;;;;;3.10;2.55;;;21.30;59.50;;;;;;4954923;28;87355;-63
2024/03/22 03:02:54;;;;;;;3.80;2.55;;;21.30;59.50;;;;;;4955590;28;88313;-62
2024/03/22 03:05:22;;;;;;;4.18;3.28;;;21.30;59.60;;;;;;4953250;28;88805;-62
2024/03/22 03:07:48;;;;;;;3.80;2.35;;;21.30;59.50;;;;;;4955121;28;87439;-62
2024/03/22 03:10:14;;;;;;;4.53;2.63;;;21.30;59.40;;;;;;4949127;28;87579;-62
2024/03/22 03:12:40;;;;;;;3.08;2.55;;;21.30;59.40;;;;;;4954487;28;89032;-62
2024/03/22 03:15:07;;;;;;;3.97;2.65;;;21.30;59.30;;;;;;4955088;28;88301;-61
2024/03/22 03:17:32;;;;;;;3.22;2.42;;;21.30;59.30;;;;;;4955713;28;88130;-62
2024/03/22 03:19:58;;;;;;;3.40;2.45;;;21.20;59.30;;;;;;4956183;28;87500;-61
2024/03/22 03:22:25;;;;;;;4.05;2.47;;;21.30;59.40;;;;;;4954695;28;88217;-62
2024/03/22 03:24:51;;;;;;;3.60;2.60;;;21.20;59.40;;;;;;4954623;28;87973;-62
2024/03/22 03:27:16;;;;;;;3.50;2.28;;;21.20;59.40;;;;;;4955624;28;87094;-62
2024/03/22 03:29:43;;;;;;;4.40;2.53;;;21.20;59.40;;;;;;4956035;28;87211;-61
2024/03/22 03:32:08;;;;;;;3.45;2.50;;;21.20;59.40;;;;;;4953737;28;89005;-61
2024/03/22 03:34:34;;;;;;;4.05;2.72;;;21.20;59.30;;;;;;4956703;28;87109;-61
2024/03/22 03:37:01;;;;;;;3.97;2.70;;;21.20;59.30;;;;;;4954642;28;87716;-62
2024/03/22 03:39:29;;;;;;;3.85;2.83;;;21.20;59.50;;;;;;4954758;28;87344;-62
2024/03/22 03:41:54;;;;;;;3.55;2.70;;;21.20;59.40;;;;;;4954442;28;88530;-62
2024/03/22 03:44:20;;;;;;;5.05;3.13;;;21.20;59.40;;;;;;4955544;28;88569;-61
2024/03/22 03:46:46;;;;;;;5.05;2.60;;;21.20;59.40;;;;;;4957104;28;86880;-63
2024/03/22 03:49:11;;;;;;;3.40;2.50;;;21.20;59.30;;;;;;4954835;28;87144;-62
2024/03/22 03:51:37;;;;;;;3.35;2.42;;;21.20;59.30;;;;;;4956199;28;88154;-61
2024/03/22 03:54:03;;;;;;;3.88;2.55;;;21.20;59.40;;;;;;4955639;28;87440;-63
2024/03/22 03:56:30;;;;;;;3.15;2.28;;;21.20;59.30;;;;;;4955167;28;87404;-62
2024/03/22 03:58:56;;;;;;;3.65;2.70;;;21.20;59.40;;;;;;4954567;28;87597;-62
2024/03/22 04:01:22;;;;;;;3.60;2.53;;;21.20;59.40;;;;;;4955501;28;88120;-61
2024/03/22 04:03:49;;;;;;;3.75;2.47;;;21.20;59.50;;;;;;4950073;28;87758;-61
2024/03/22 04:06:16;;;;;;;3.60;2.10;;;21.10;59.40;;;;;;4952002;28;88389;-62
2024/03/22 04:08:43;;;;;;;3.45;2.50;;;21.20;59.30;;;;;;4953289;28;87239;-62
2024/03/22 04:11:10;;;;;;;3.65;2.70;;;21.20;59.40;;;;;;4952614;28;89054;-61
2024/03/22 04:13:37;;;;;;;3.70;2.63;;;21.20;59.30;;;;;;4955251;28;88687;-62
2024/03/22 04:16:03;;;;;;;4.57;2.75;;;21.10;59.20;;;;;;4951509;28;87424;-61
2024/03/22 04:18:29;;;;;;;3.90;2.28;;;21.10;59.30;;;;;;4933905;28;88530;-61
2024/03/22 04:20:56;;;;;;;3.33;2.47;;;21.10;59.20;;;;;;4942446;28;87483;-62
2024/03/22 04:23:22;;;;;;;3.78;2.17;;;21.10;59.30;;;;;;4955254;28;87241;-62
2024/03/22 04:25:59;;;;;;;3.08;2.58;;;21.10;60.00;;;;;;4953701;28;87278;-61
2024/03/22 04:28:26;;;;;;;3.47;2.47;;;21.10;59.40;;;;;;4952884;28;87696;-62
2024/03/22 04:31:10;;;;;;;3.17;2.30;;;21.10;59.40;;;;;;4953611;28;88649;-61
2024/03/22 04:33:37;;;;;;;2.85;2.15;;;21.10;59.40;;;;;;4953743;28;90027;-62
2024/03/22 04:36:04;;;;;;;3.42;2.33;;;21.10;59.40;;;;;;4951629;28;87012;-61
2024/03/22 04:38:30;;;;;;;3.83;2.63;;;21.10;59.20;;;;;;4952666;28;87601;-62
2024/03/22 04:40:56;;;;;;;4.75;3.05;;;21.10;59.40;;;;;;4951869;28;88537;-61
2024/03/22 04:43:25;;;;;;;2.85;2.28;;;21.10;59.30;;;;;;4954495;28;87796;-62
2024/03/22 04:45:52;;;;;;;2.85;2.20;;;21.10;59.40;;;;;;4955176;28;87089;-61
2024/03/22 04:48:22;;;;;;;3.25;2.15;;;21.10;59.30;;;;;;4952254;28;87206;-61
2024/03/22 04:50:50;;;;;;;4.22;2.72;;;21.10;59.20;;;;;;4945655;28;88151;-62
2024/03/22 04:53:18;;;;;;;3.30;2.38;;;21.10;59.30;;;;;;4941160;28;88342;-62
2024/03/22 04:55:44;;;;;;;4.10;2.45;;;21.10;59.20;;;;;;4953834;28;88145;-62
2024/03/22 04:58:16;;;;;;;4.07;2.60;;;21.10;59.40;;;;;;4947886;28;87492;-62
2024/03/22 05:00:43;;;;;;;3.15;2.40;;;21.10;59.50;;;;;;4966694;28;88337;-62
2024/03/22 05:03:09;;;;;;;6.57;3.35;;;21.10;59.40;;;;;;4950827;28;87722;-61
2024/03/22 05:05:35;;;;;;;4.95;2.42;;;21.10;59.40;;;;;;4953080;28;87442;-61
2024/03/22 05:08:01;;;;;;;3.33;2.20;;;21.10;59.30;;;;;;4954577;28;87446;-62
2024/03/22 05:10:30;;;;;;;3.78;2.53;;;21.00;59.20;;;;;;4954829;28;87861;-62
2024/03/22 05:12:57;;;;;;;2.42;2.10;;;21.00;59.20;;;;;;4953159;28;87807;-61
2024/03/22 05:15:28;;;;;;;3.45;2.38;;;21.00;59.30;;;;;;4951404;28;87002;-62
2024/03/22 05:17:56;;;;;;;2.28;1.73;;;21.00;59.20;;;;;;4926651;28;89770;-61
2024/03/22 05:20:25;;;;;;;2.78;2.25;;;21.00;59.20;;;;;;4935748;28;88629;-62
2024/03/22 05:22:53;;;;;;;2.70;2.15;;;21.00;59.20;;;;;;4951646;28;88806;-62
2024/03/22 05:25:23;;;;;;;3.08;2.45;;;21.00;59.30;;;;;;4950493;28;87049;-62
2024/03/22 05:27:49;;;;;;;2.97;2.17;;;21.00;59.20;;;;;;4951079;28;87295;-61
2024/03/22 05:30:15;;;;;;;2.97;2.00;;;21.00;59.20;;;;;;4953364;28;87486;-62
2024/03/22 05:32:43;;;;;;;3.25;2.33;;;21.00;59.30;;;;;;4952470;28;88380;-62
2024/03/22 05:35:13;;;;;;;2.83;2.47;;;21.00;59.30;;;;;;4950982;28;86945;-62
2024/03/22 05:37:40;;;;;;;3.38;2.22;;;21.00;59.20;;;;;;4954650;28;86584;-62
2024/03/22 05:40:10;;;;;;;3.28;2.25;;;21.00;59.20;;;;;;4948006;28;88479;-62
2024/03/22 05:42:37;;;;;;;3.35;2.15;;;21.00;59.20;;;;;;4964596;28;88674;-62
2024/03/22 05:45:03;;;;;;;3.45;2.60;;;21.00;59.10;;;;;;4952981;28;87900;-62
2024/03/22 05:47:30;;;;;;;3.00;2.53;;;21.00;59.10;;;;;;4951770;28;88218;-62
2024/03/22 05:49:58;;;;;;;3.17;2.22;;;21.00;59.20;;;;;;4953073;28;88010;-62
2024/03/22 05:52:25;;;;;;;2.38;1.85;;;21.00;59.10;;;;;;4943849;28;88734;-61
2024/03/22 05:54:52;;;;;;;2.47;1.95;;;21.00;59.20;;;;;;4954729;28;87255;-62
2024/03/22 05:57:17;;;;;;;3.03;2.25;;;20.90;59.20;;;;;;4950334;28;88370;-62
2024/03/22 05:59:48;;;;;;;2.83;2.35;;;20.90;59.80;;;;;;4951023;28;87621;-61
2024/03/22 06:02:15;;;;;;;3.03;2.17;;;20.90;59.10;;;;;;4928834;28;88811;-62
2024/03/22 06:04:42;;;;;;;3.20;1.90;;;20.90;59.20;;;;;;4954244;28;86974;-61
2024/03/22 06:07:16;;;;;;;3.45;2.35;;;20.90;59.00;;;;;;4951613;28;87772;-62
2024/03/22 06:09:48;;;;;;;4.07;2.70;;;21.00;59.20;;;;;;4945469;28;89891;-62
2024/03/22 06:12:15;;;;;;;3.30;2.47;;;20.90;59.00;;;;;;4944106;28;91121;-62
2024/03/22 06:14:46;;;;;;;2.13;1.83;;;20.90;59.00;;;;;;4930143;28;88021;-62
2024/03/22 06:17:12;;;;;;;2.92;2.35;;;20.90;59.00;;;;;;4932777;28;87739;-61
2024/03/22 06:19:38;;;;;;;3.10;2.40;;;20.90;59.00;;;;;;4953662;28;88151;-63
2024/03/22 06:22:04;;;;;;;3.13;2.65;;;20.90;59.20;;;;;;4947998;28;87321;-62
2024/03/22 06:24:34;;;;;;;3.47;2.35;;;20.90;59.20;;;;;;4944172;28;87216;-61
2024/03/22 06:27:00;;;;;;;2.47;2.15;;;20.90;59.00;;;;;;4955930;28;86648;-61
2024/03/22 06:29:26;;;;;;;3.78;2.70;;;20.90;59.10;;;;;;4951456;28;88737;-61
2024/03/22 06:31:52;;;;;;;3.28;2.50;;;20.90;59.10;;;;;;4952706;28;87805;-62
2024/03/22 06:34:19;;;;;;;3.15;2.30;;;20.90;59.10;;;;;;4950947;28;88056;-62
2024/03/22 06:36:45;;;;;;;3.00;2.00;;;20.90;59.20;;;;;;4950693;28;87549;-61
2024/03/22 06:39:11;;;;;;;3.03;2.40;;;20.90;59.20;;;;;;4934892;28;89127;-62
2024/03/22 06:41:37;;;;;;;4.13;2.10;;;20.90;59.70;;;;;;4950715;28;88250;-62
2024/03/22 06:44:03;;;;;;;2.97;1.95;;;20.90;59.10;;;;;;4963600;28;87869;-63
2024/03/22 06:46:29;;;;;;;2.90;2.10;;;20.90;59.00;;;;;;4953158;28;87022;-63
2024/03/22 06:48:55;;;;;;;2.80;2.28;;;20.90;58.80;;;;;;4950644;28;89164;-62
2024/03/22 06:51:20;;;;;;;2.95;2.33;;;20.90;58.90;;;;;;4950749;28;88836;-63
2024/03/22 06:53:47;;;;;;;2.15;1.95;;;20.90;59.00;;;;;;4952730;28;87061;-62
2024/03/22 06:56:13;;;;;;;1.90;1.70;;;20.90;59.30;;;;;;4952084;28;87445;-62
2024/03/22 06:58:39;;;;;;;4.88;2.67;;;21.00;59.40;;;;;;4952028;28;89088;-62
2024/03/22 07:01:07;;;;;;;2.20;1.67;;;21.00;59.50;;;;;;4945707;28;88354;-63
2024/03/22 07:03:34;;;;;;;2.30;1.93;;;21.20;59.30;;;;;;4951432;28;87095;-61
2024/03/22 07:06:00;;;;;;;2.10;1.75;;;21.30;59.00;;;;;;4949660;28;88064;-62
2024/03/22 07:08:26;;;;;;;2.72;1.70;;;21.50;58.90;;;;;;4952110;28;88127;-62
2024/03/22 07:10:53;;;;;;;3.65;2.30;;;21.60;58.80;;;;;;4952890;28;87063;-63
2024/03/22 07:13:21;;;;;;;6.47;2.65;;;21.80;58.20;;;;;;4954517;28;87399;-63
2024/03/22 07:15:47;;;;;;;3.15;2.17;;;21.80;57.90;;;;;;4954239;28;87520;-62
2024/03/22 07:18:14;;;;;;;7.70;2.92;;;21.90;57.80;;;;;;4955293;28;88844;-63
2024/03/22 07:20:41;;;;;;;4.85;2.45;;;21.90;57.80;;;;;;4952329;28;87739;-63
2024/03/22 07:23:07;;;;;;;2.65;2.20;;;22.00;57.90;;;;;;4955411;28;88090;-63
2024/03/22 07:25:34;;;;;;;4.38;2.13;;;22.00;57.60;;;;;;4956658;28;87050;-63
2024/03/22 07:28:00;;;;;;;2.97;1.98;;;22.10;57.70;;;;;;4953106;28;88412;-62
2024/03/22 07:30:27;;;;;;;5.03;2.22;;;22.20;57.50;;;;;;4953275;28;88555;-62
2024/03/22 07:32:53;;;;;;;5.32;2.28;;;22.20;57.50;;;;;;4953496;28;86931;-63
2024/03/22 07:35:19;;;;;;;3.25;2.28;;;22.30;57.40;;;;;;4953231;28;87549;-62
2024/03/22 07:37:45;;;;;;;2.63;2.10;;;22.30;57.30;;;;;;4955140;28;87806;-62
2024/03/22 07:40:11;;;;;;;3.92;2.13;;;22.20;57.20;;;;;;4954276;28;87860;-63
2024/03/22 07:42:36;;;;;;;4.82;1.98;;;22.30;57.20;;;;;;4955349;28;87396;-63
2024/03/22 07:45:02;;;;;;;2.42;1.90;;;22.30;57.40;;;;;;4954410;28;87147;-63
2024/03/22 07:47:28;;;;;;;3.33;2.17;;;22.30;57.40;;;;;;4949103;28;88418;-62
2024/03/22 07:49:54;;;;;;;3.58;2.42;;;22.20;57.40;;;;;;4952497;28;88839;-62
2024/03/22 07:52:21;;;;;;;5.10;2.25;;;22.30;57.70;;;;;;4953578;28;87503;-63
2024/03/22 07:54:47;;;;;;;4.10;1.88;;;22.30;57.60;;;;;;4953675;28;87393;-62
2024/03/22 07:57:12;;;;;;;4.13;2.20;;;22.30;57.70;;;;;;4957866;28;88252;-61
2024/03/22 07:59:38;;;;;;;3.33;2.17;;;22.30;57.60;;;;;;4952901;28;88358;-63
2024/03/22 08:02:04;;;;;;;2.97;1.90;;;22.30;57.70;;;;;;4952549;28;87697;-62
2024/03/22 08:04:29;;;;;;;11.50;4.10;;;22.30;57.60;;;;;;4955313;28;86488;-64
2024/03/22 08:06:57;;;;;;;18.48;5.15;;;22.30;57.30;;;;;;4951676;28;88404;-62
2024/03/22 08:09:24;;;;;;;18.67;6.28;;;22.30;57.30;;;;;;4946439;28;88981;-63
2024/03/22 08:11:49;;;;;;;24.50;6.20;;;22.20;57.10;;;;;;4946389;28;88420;-62
2024/03/22 08:14:16;;;;;;;19.48;5.22;;;22.20;57.50;;;;;;4948273;28;87471;-62
2024/03/22 08:16:42;;;;;;;11.77;4.18;;;22.20;57.60;;;;;;4952243;28;88152;-62
2024/03/22 08:19:13;;;;;;;12.55;4.03;;;22.20;57.70;;;;;;4954302;28;88405;-62
2024/03/22 08:21:40;;;;;;;16.10;5.13;;;22.30;57.50;;;;;;4967501;28;87076;-62
2024/03/22 08:24:06;;;;;;;18.65;5.30;;;22.20;57.40;;;;;;4941352;28;87954;-63
2024/03/22 08:26:32;;;;;;;17.33;4.78;;;22.20;57.50;;;;;;4954804;28;86979;-62
2024/03/22 08:28:57;;;;;;;16.20;3.78;;;22.10;57.50;;;;;;4954744;28;87209;-62
2024/03/22 08:31:26;;;;;;;14.18;4.57;;;22.10;57.80;;;;;;4953229;28;87698;-62
2024/03/22 08:33:52;;;;;;;12.82;3.95;;;22.10;57.60;;;;;;4951692;28;88044;-62
2024/03/22 08:36:18;;;;;;;15.82;6.05;;;22.20;57.50;;;;;;4952992;28;88994;-62
2024/03/22 08:38:45;;;;;;;14.63;4.95;;;22.20;57.50;;;;;;4948470;28;88727;-62
2024/03/22 08:41:11;;;;;;;16.17;5.07;;;22.20;57.60;;;;;;4947668;28;87314;-63
2024/03/22 08:43:37;;;;;;;11.50;4.47;;;22.10;57.60;;;;;;4974207;28;87385;-62
2024/03/22 08:46:05;;;;;;;15.68;4.30;;;22.00;57.90;;;;;;4951211;28;88310;-63
2024/03/22 08:48:30;;;;;;;10.63;4.00;;;22.10;57.80;;;;;;4955698;28;88326;-62
2024/03/22 08:50:58;;;;;;;11.48;4.40;;;22.20;57.60;;;;;;4953693;28;87538;-63
2024/03/22 08:53:24;;;;;;;14.30;5.55;;;22.20;57.50;;;;;;4951710;28;87611;-63
2024/03/22 08:55:51;;;;;;;15.82;5.57;;;22.20;57.40;;;;;;4954309;28;88322;-63
2024/03/22 08:58:17;;;;;;;12.98;4.22;;;22.10;57.60;;;;;;4952327;28;88497;-62
2024/03/22 09:00:45;;;;;;;9.40;3.80;;;22.10;57.60;;;;;;4950623;28;88323;-63
2024/03/22 09:03:11;;;;;;;11.63;4.32;;;22.10;57.70;;;;;;4931265;28;87746;-62
2024/03/22 09:05:37;;;;;;;12.23;4.72;;;22.20;57.60;;;;;;4938910;28;88818;-63
2024/03/22 09:08:03;;;;;;;9.60;4.70;;;22.20;57.60;;;;;;4926606;28;87375;-64
2024/03/22 09:10:29;;;;;;;10.27;4.05;;;22.20;57.60;;;;;;4954286;28;88534;-63
2024/03/22 09:12:55;;;;;;;9.25;3.47;;;22.20;57.50;;;;;;4950288;28;87256;-62
2024/03/22 09:15:22;;;;;;;14.15;4.53;;;22.20;57.30;;;;;;4927515;28;87507;-63
2024/03/22 09:17:48;;;;;;;14.48;4.63;;;22.20;55.00;;;;;;4950456;28;87412;-62
2024/03/22 09:20:14;;;;;;;10.60;4.55;;;22.20;56.10;;;;;;4932259;28;87237;-62
2024/03/22 09:22:39;;;;;;;17.85;6.18;;;22.10;56.40;;;;;;4951216;28;87422;-63
2024/03/22 09:25:06;;;;;;;12.30;5.05;;;22.10;56.40;;;;;;4949899;28;89443;-62
2024/03/22 09:27:32;;;;;;;11.85;4.30;;;22.00;56.40;;;;;;4949413;28;91429;-63
2024/03/22 09:30:01;;;;;;;10.05;4.32;;;22.00;57.10;;;;;;4948379;28;87481;-63
2024/03/22 09:32:26;;;;;;;10.48;4.43;;;22.10;57.20;;;;;;4931348;28;87649;-62
2024/03/22 09:34:53;;;;;;;8.23;4.30;;;22.10;56.90;;;;;;4946730;28;89156;-62
2024/03/22 09:37:19;;;;;;;12.23;4.40;;;22.20;56.90;;;;;;4968108;28;87695;-63
2024/03/22 09:39:45;;;;;;;7.32;3.33;;;22.20;55.90;;;;;;4949870;28;88352;-62
2024/03/22 09:42:17;;;;;;;8.18;3.22;;;22.20;56.70;;;;;;4948217;28;87792;-62
2024/03/22 09:44:50;;;;;;;12.38;4.10;;;22.30;56.80;;;;;;4948021;28;88029;-62
2024/03/22 09:47:17;;;;;;;9.40;4.10;;;22.40;56.60;;;;;;4949426;28;88483;-62
2024/03/22 09:49:48;;;;;;;8.85;3.10;;;22.40;56.20;;;;;;4951487;28;88267;-63
2024/03/22 09:52:14;;;;;;;12.43;3.88;;;22.40;56.30;;;;;;4949876;28;87563;-62
2024/03/22 09:54:44;;;;;;;8.77;3.78;;;22.40;56.00;;;;;;4950137;28;87908;-63
2024/03/22 09:57:15;;;;;;;6.45;3.13;;;22.40;56.20;;;;;;4953052;28;89287;-62
2024/03/22 09:59:47;;;;;;;6.10;2.92;;;22.40;55.90;;;;;;4969748;28;87232;-63
2024/03/22 10:02:13;;;;;;;9.18;3.83;;;22.30;56.00;;;;;;4959284;28;87894;-62
2024/03/22 10:04:40;;;;;;;7.18;3.17;;;22.40;56.00;;;;;;4949348;28;89594;-62
2024/03/22 10:07:08;;;;;;;6.18;3.75;;;22.40;55.90;;;;;;4949321;28;87451;-62
2024/03/22 10:09:34;;;;;;;7.93;3.65;;;22.40;55.70;;;;;;4950827;28;87605;-63
2024/03/22 10:12:03;;;;;;;7.68;3.25;;;22.40;55.80;;;;;;4956305;28;88754;-62
2024/03/22 10:14:30;;;;;;;5.70;2.47;;;22.40;55.80;;;;;;4966589;28;89605;-62
2024/03/22 10:16:56;;;;;;;6.40;2.65;;;22.40;55.70;;;;;;4969802;28;89606;-62
2024/03/22 10:19:23;;;;;;;7.53;3.42;;;22.40;55.60;;;;;;4965586;28;87606;-61
2024/03/22 10:22:05;;;;;;;8.15;4.10;;;22.50;55.70;;;;;;4949451;28;86895;-62
2024/03/22 10:24:33;;;;;;;7.43;2.60;;;22.40;55.40;;;;;;4950447;28;89391;-62
2024/03/22 10:27:01;;;;;;;8.18;3.40;;;22.40;55.40;;;;;;4950047;28;87864;-65
2024/03/22 10:29:28;;;;;;;5.17;3.07;;;22.40;55.60;;;;;;4942777;28;87216;-63
2024/03/22 10:31:55;;;;;;;7.47;3.58;;;22.50;55.80;;;;;;4951568;28;89162;-64
2024/03/22 10:34:22;;;;;;;9.02;2.85;;;22.50;55.60;;;;;;4971738;28;88184;-63
2024/03/22 10:36:49;;;;;;;10.27;3.80;;;22.50;55.30;;;;;;4969520;28;88168;-61
2024/03/22 10:39:21;;;;;;;4.93;2.97;;;22.50;55.40;;;;;;4963247;28;89054;-59
2024/03/22 10:41:48;;;;;;;6.20;3.22;;;22.50;55.60;;;;;;4964939;28;87310;-61
2024/03/22 10:44:14;;;;;;;7.20;3.33;;;22.50;55.50;;;;;;4969248;28;87298;-60
2024/03/22 10:46:45;;;;;;;9.45;3.67;;;22.50;55.70;;;;;;4969889;28;87319;-60
2024/03/22 10:49:20;;;;;;;6.63;2.92;;;22.50;55.90;;;;;;4974474;28;87895;-60
2024/03/22 10:51:59;;;;;;;10.55;3.70;;;22.50;55.90;;;;;;4973759;28;88891;-60
2024/03/22 10:54:30;;;;;;;6.55;3.55;;;22.50;56.20;;;;;;4972367;28;89023;-60
2024/03/22 10:56:57;;;;;;;6.85;2.55;;;22.50;56.40;;;;;;4971097;28;89060;-61
2024/03/22 10:59:24;;;;;;;5.88;2.95;;;22.50;56.50;;;;;;4973650;28;87526;-60
2024/03/22 11:01:51;;;;;;;10.23;3.58;;;22.50;56.80;;;;;;4974023;28;87412;-60
2024/03/22 11:04:22;;;;;;;9.53;3.57;;;22.60;56.80;;;;;;4971933;28;89527;-60
2024/03/22 11:06:52;;;;;;;6.38;2.60;;;22.60;56.90;;;;;;4972636;28;89657;-60
2024/03/22 11:09:21;;;;;;;5.25;2.65;;;22.60;57.00;;;;;;4972596;28;87625;-60
2024/03/22 11:11:47;;;;;;;7.05;3.22;;;22.60;57.10;;;;;;4973731;28;87693;-61
2024/03/22 11:14:14;;;;;;;7.10;2.65;;;22.60;57.20;;;;;;4972242;28;87535;-60
2024/03/22 11:16:51;;;;;;;5.43;2.25;;;22.60;57.20;;;;;;4974050;28;87823;-60
2024/03/22 11:19:17;;;;;;;5.82;3.25;;;22.60;57.40;;;;;;4946688;28;86872;-60
2024/03/22 11:21:43;;;;;;;5.60;2.70;;;22.60;57.40;;;;;;4948733;28;89769;-61
2024/03/22 11:24:10;;;;;;;5.53;2.45;;;22.60;57.40;;;;;;4953216;28;88079;-59
2024/03/22 11:26:36;;;;;;;5.10;3.00;;;22.60;57.60;;;;;;4951826;28;88533;-61
2024/03/22 11:29:03;;;;;;;5.65;2.85;;;22.60;57.80;;;;;;4945185;28;87934;-61
2024/03/22 11:31:29;;;;;;;4.38;3.03;;;22.70;57.60;;;;;;4955893;28;87685;-60
2024/03/22 11:33:55;;;;;;;5.75;2.70;;;22.70;57.70;;;;;;4951569;28;88930;-60
2024/03/22 11:36:25;;;;;;;7.07;3.22;;;22.60;57.90;;;;;;4952160;28;87867;-61
2024/03/22 11:38:52;;;;;;;;;;;22.70;57.90;;;;;;4954111;28;87981;-62
2024/03/22 11:41:26;;;;;;;6.72;2.97;;;22.70;58.10;;;;;;4956527;28;87295;-62
2024/03/22 11:43:52;;;;;;;6.00;2.55;;;22.70;58.10;;;;;;4952828;28;88482;-60
2024/03/22 11:46:19;;;;;;;5.50;2.40;;;22.70;58.00;;;;;;4966106;28;88754;-59
2024/03/22 11:48:46;;;;;;;5.80;2.58;;;22.70;58.00;;;;;;4971628;28;87772;-59
2024/03/22 11:51:13;;;;;;;11.18;3.03;;;22.70;58.00;;;;;;4955571;28;87941;-61
2024/03/22 11:53:48;;;;;;;3.05;1.90;;;22.70;57.90;;;;;;4949962;28;91888;-61
2024/03/22 11:56:17;;;;;;;5.22;2.42;;;22.70;58.10;;;;;;4951533;28;89034;-64
2024/03/22 11:58:45;;;;;;;5.13;2.78;;;22.80;57.90;;;;;;4966796;28;87983;-60
2024/03/22 12:01:11;;;;;;;6.68;2.85;;;22.80;57.20;;;;;;4954109;28;87265;-60
2024/03/22 12:03:36;;;;;;;4.72;2.88;;;22.70;56.90;;;;;;4952078;28;88669;-60
2024/03/22 12:06:04;;;;;;;5.90;3.10;;;22.70;57.30;;;;;;4952961;28;87869;-60
2024/03/22 12:08:30;;;;;;;5.78;2.58;;;22.70;57.60;;;;;;4953830;28;87845;-61
2024/03/22 12:10:55;;;;;;;5.35;2.47;;;22.60;57.20;;;;;;4955508;28;86882;-61
2024/03/22 12:13:22;;;;;;;5.82;2.75;;;22.60;57.70;;;;;;4952264;28;88977;-61
2024/03/22 12:15:48;;;;;;;7.30;3.40;;;22.70;57.60;;;;;;4952749;28;90220;-61
2024/03/22 12:18:14;;;;;;;6.68;3.35;;;22.70;57.20;;;;;;4953491;28;87931;-62
2024/03/22 12:20:40;;;;;;;8.65;3.08;;;22.80;57.30;;;;;;4952149;28;88043;-60
2024/03/22 12:23:06;;;;;;;6.13;2.50;;;22.60;57.90;;;;;;4954086;28;88234;-60
2024/03/22 12:25:32;;;;;;;4.78;2.55;;;22.70;58.50;;;;;;4946491;28;86957;-61
2024/03/22 12:27:58;;;;;;;5.57;3.70;;;22.70;58.80;;;;;;4951761;28;87662;-61
2024/03/22 12:30:23;;;;;;;6.97;3.47;;;22.70;61.60;;;;;;4952414;28;87051;-66
2024/03/22 12:32:49;;;;;;;8.18;4.43;;;22.80;68.20;;;;;;4950549;28;87322;-60
2024/03/22 12:35:15;;;;;;;9.55;4.38;;;22.70;67.20;;;;;;4955237;28;87746;-61
2024/03/22 12:37:40;;;;;;;6.07;3.65;;;22.80;64.70;;;;;;4955928;28;86951;-60
2024/03/22 12:40:08;;;;;;;8.10;4.28;;;22.80;64.80;;;;;;4953462;28;87934;-60
2024/03/22 12:42:34;;;;;;;4.82;2.88;;;22.80;64.30;;;;;;4953111;28;89716;-61
2024/03/22 12:45:00;;;;;;;5.50;3.45;;;22.70;62.80;;;;;;4951873;28;88250;-60
2024/03/22 12:47:26;;;;;;;9.73;3.47;;;22.70;62.20;;;;;;4952720;28;87342;-60